Time;durP1;ratioP1;P1;durP2;ratioP2;P2;SDS_P1;SDS_P2;PMS_P1;PMS_P2;Temp;Humidity;BMP_temperature;BMP_pressure;BME280_temperature;BME280_humidity;BME280_pressure;Samples;Min_cycle;Max_cycle;Signal;HPM_P1;HPM_P2
2021/07/01 00:00:14;;;;;;;10.70;3.20;;;;;;;;;;5005936;28;20072;-67
2021/07/01 00:02:40;;;;;;;7.38;3.30;;;;;;;;;;5003943;28;20396;-68
2021/07/01 00:05:07;;;;;;;10.50;3.25;;;;;;;;;;4994407;28;20065;-68
2021/07/01 00:07:33;;;;;;;16.05;3.30;;;;;;;;;;5011708;28;20098;-67
2021/07/01 00:09:59;;;;;;;12.13;3.50;;;;;;;;;;5011200;28;20049;-67
2021/07/01 00:12:25;;;;;;;14.50;3.65;;;;;;;;;;5008597;28;20061;-68
2021/07/01 00:14:51;;;;;;;9.63;3.20;;;;;;;;;;5006050;28;20551;-68
2021/07/01 00:17:17;;;;;;;13.90;3.60;;;;;;;;;;5011758;28;20034;-66
2021/07/01 00:19:43;;;;;;;10.18;3.40;;;;;;;;;;5011428;28;20164;-66
2021/07/01 00:22:09;;;;;;;12.68;4.10;;;;;;;;;;5010977;28;20026;-66
2021/07/01 00:24:36;;;;;;;9.32;3.20;;;;;;;;;;5011647;28;20033;-67
2021/07/01 00:27:02;;;;;;;9.50;3.55;;;;;;;;;;5010013;28;20030;-67
2021/07/01 00:29:28;;;;;;;7.57;3.50;;;;;;;;;;5008903;28;20037;-66
2021/07/01 00:31:54;;;;;;;7.63;3.17;;;;;;;;;;5010703;28;20465;-66
2021/07/01 00:34:20;;;;;;;10.30;3.60;;;;;;;;;;5011599;28;20030;-68
2021/07/01 00:36:46;;;;;;;13.00;3.20;;;;;;;;;;5011414;28;20026;-67
2021/07/01 00:39:12;;;;;;;11.70;3.50;;;;;;;;;;5011186;28;20124;-68
2021/07/01 00:41:38;;;;;;;13.50;3.53;;;;;;;;;;5009913;28;20022;-68
2021/07/01 00:44:04;;;;;;;9.02;3.25;;;;;;;;;;5006730;28;20044;-67
2021/07/01 00:46:31;;;;;;;9.02;3.20;;;;;;;;;;5011134;28;20403;-67
2021/07/01 00:48:57;;;;;;;7.20;2.90;;;;;;;;;;5002070;28;20076;-67
2021/07/01 00:51:23;;;;;;;9.13;3.05;;;;;;;;;;5011478;28;20034;-68
2021/07/01 00:53:49;;;;;;;8.70;3.10;;;;;;;;;;5007444;28;20030;-68
2021/07/01 00:56:16;;;;;;;8.93;3.10;;;;;;;;;;5011411;28;20030;-69
2021/07/01 00:58:42;;;;;;;9.55;3.17;;;;;;;;;;5000182;28;20361;-66
2021/07/01 01:01:08;;;;;;;10.30;3.20;;;;;;;;;;5001742;28;20537;-68
2021/07/01 01:03:36;;;;;;;10.90;3.15;;;;;;;;;;5012913;28;20037;-67
2021/07/01 01:06:02;;;;;;;7.68;3.10;;;;;;;;;;5014491;28;20105;-67
2021/07/01 01:08:28;;;;;;;7.55;3.38;;;;;;;;;;4997496;28;20383;-65
2021/07/01 01:10:54;;;;;;;8.45;3.15;;;;;;;;;;5012375;28;20091;-67
2021/07/01 01:13:24;;;;;;;10.45;3.30;;;;;;;;;;5011999;28;20041;-68
2021/07/01 01:15:54;;;;;;;7.40;3.10;;;;;;;;;;5013894;28;20531;-67
2021/07/01 01:18:20;;;;;;;7.07;2.90;;;;;;;;;;5015239;28;20798;-67
2021/07/01 01:20:47;;;;;;;8.00;2.90;;;;;;;;;;5013891;28;20041;-68
2021/07/01 01:23:13;;;;;;;8.98;3.35;;;;;;;;;;5014191;28;20480;-65
2021/07/01 01:25:39;;;;;;;9.23;3.88;;;;;;;;;;5014435;28;20041;-66
2021/07/01 01:28:05;;;;;;;11.13;3.30;;;;;;;;;;5013212;28;20032;-67
2021/07/01 01:30:31;;;;;;;10.15;3.10;;;;;;;;;;5014733;28;20072;-68
2021/07/01 01:32:58;;;;;;;9.93;3.53;;;;;;;;;;5011380;28;20014;-67
2021/07/01 01:35:24;;;;;;;13.48;3.50;;;;;;;;;;5014081;28;20124;-67
2021/07/01 01:37:50;;;;;;;10.35;3.20;;;;;;;;;;5012691;28;20045;-68
2021/07/01 01:40:16;;;;;;;10.45;3.22;;;;;;;;;;5012014;28;20467;-68
2021/07/01 01:42:42;;;;;;;11.75;3.33;;;;;;;;;;5007113;28;20512;-68
2021/07/01 01:45:09;;;;;;;14.30;3.60;;;;;;;;;;5013843;28;20032;-65
2021/07/01 01:47:35;;;;;;;9.80;2.95;;;;;;;;;;5014188;28;20032;-65
2021/07/01 01:50:01;;;;;;;6.88;3.10;;;;;;;;;;5013846;28;20030;-67
2021/07/01 01:52:27;;;;;;;9.63;3.10;;;;;;;;;;5010295;28;20023;-67
2021/07/01 01:54:53;;;;;;;10.55;3.75;;;;;;;;;;4992813;28;20084;-68
2021/07/01 01:57:26;;;;;;;7.47;3.33;;;;;;;;;;5013980;28;20037;-68
2021/07/01 01:59:52;;;;;;;7.68;3.33;;;;;;;;;;5012457;28;20041;-66
2021/07/01 02:02:18;;;;;;;9.75;3.42;;;;;;;;;;5013977;28;20034;-65
2021/07/01 02:04:44;;;;;;;12.05;3.35;;;;;;;;;;5013947;28;20061;-68
2021/07/01 02:07:10;;;;;;;6.45;3.10;;;;;;;;;;5013425;28;20018;-69
2021/07/01 02:09:36;;;;;;;10.20;3.05;;;;;;;;;;4993233;28;20440;-68
2021/07/01 02:12:02;;;;;;;10.25;3.20;;;;;;;;;;5013508;28;20022;-68
2021/07/01 02:14:28;;;;;;;20.70;3.72;;;;;;;;;;5007855;28;20507;-67
2021/07/01 02:16:55;;;;;;;9.80;3.13;;;;;;;;;;5013760;28;20026;-67
2021/07/01 02:19:21;;;;;;;12.63;3.10;;;;;;;;;;5013474;28;20488;-68
2021/07/01 02:21:47;;;;;;;8.85;3.38;;;;;;;;;;5012954;28;20377;-69
2021/07/01 02:24:13;;;;;;;6.15;2.95;;;;;;;;;;5009637;28;20030;-67
2021/07/01 02:26:39;;;;;;;7.22;3.08;;;;;;;;;;5013173;28;20029;-67
2021/07/01 02:29:05;;;;;;;13.05;3.22;;;;;;;;;;5011028;28;20037;-65
2021/07/01 02:31:32;;;;;;;7.28;3.28;;;;;;;;;;5011966;28;20029;-66
2021/07/01 02:33:58;;;;;;;7.18;3.00;;;;;;;;;;5003248;28;20045;-68
2021/07/01 02:36:24;;;;;;;8.98;3.35;;;;;;;;;;5009917;28;20033;-67
2021/07/01 02:38:50;;;;;;;9.10;3.50;;;;;;;;;;5008504;28;20145;-69
2021/07/01 02:41:16;;;;;;;9.23;3.38;;;;;;;;;;4998845;28;20085;-67
2021/07/01 02:43:42;;;;;;;6.38;2.75;;;;;;;;;;5013587;28;20468;-66
2021/07/01 02:46:08;;;;;;;13.93;3.80;;;;;;;;;;5009332;28;20153;-67
2021/07/01 02:48:34;;;;;;;14.10;4.00;;;;;;;;;;5013058;28;20073;-65
2021/07/01 02:51:00;;;;;;;8.40;3.67;;;;;;;;;;5012853;28;20038;-67
2021/07/01 02:53:26;;;;;;;6.82;3.45;;;;;;;;;;5008238;28;20104;-65
2021/07/01 02:55:52;;;;;;;9.55;3.45;;;;;;;;;;5011719;28;20042;-64
2021/07/01 02:58:18;;;;;;;6.20;3.33;;;;;;;;;;5006043;28;20026;-65
2021/07/01 03:00:44;;;;;;;10.07;3.95;;;;;;;;;;5009020;28;20084;-66
2021/07/01 03:03:10;;;;;;;8.68;3.90;;;;;;;;;;5012391;28;20026;-66
2021/07/01 03:05:36;;;;;;;8.18;3.70;;;;;;;;;;5012832;28;20076;-67
2021/07/01 03:08:02;;;;;;;5.13;3.28;;;;;;;;;;5011967;28;20144;-66
2021/07/01 03:10:28;;;;;;;10.18;3.97;;;;;;;;;;5006561;28;20484;-65
2021/07/01 03:12:54;;;;;;;10.00;3.70;;;;;;;;;;5010940;28;20475;-64
2021/07/01 03:15:21;;;;;;;6.97;3.60;;;;;;;;;;5010285;28;20502;-67
2021/07/01 03:17:47;;;;;;;10.63;3.80;;;;;;;;;;4998525;28;20034;-64
2021/07/01 03:20:13;;;;;;;10.48;3.53;;;;;;;;;;5012383;28;20037;-67
2021/07/01 03:22:39;;;;;;;7.25;3.70;;;;;;;;;;5012210;28;20116;-65
2021/07/01 03:25:05;;;;;;;10.75;3.85;;;;;;;;;;5009980;28;20030;-65
2021/07/01 03:27:31;;;;;;;7.65;3.70;;;;;;;;;;5011315;28;20029;-65
2021/07/01 03:29:58;;;;;;;6.45;3.28;;;;;;;;;;5011335;28;20168;-67
2021/07/01 03:32:24;;;;;;;7.35;3.55;;;;;;;;;;5011418;28;20033;-67
2021/07/01 03:34:50;;;;;;;7.63;3.60;;;;;;;;;;5012000;28;20041;-65
2021/07/01 03:37:16;;;;;;;8.50;3.75;;;;;;;;;;5011653;28;20029;-65
2021/07/01 03:39:42;;;;;;;8.70;3.55;;;;;;;;;;5009920;28;20042;-68
2021/07/01 03:42:09;;;;;;;9.05;3.50;;;;;;;;;;5001460;28;20023;-66
2021/07/01 03:44:37;;;;;;;7.70;3.67;;;;;;;;;;5012494;28;20032;-65
2021/07/01 03:47:03;;;;;;;16.50;3.88;;;;;;;;;;5012106;28;20101;-67
2021/07/01 03:49:29;;;;;;;10.07;4.07;;;;;;;;;;5008555;28;20033;-65
2021/07/01 03:51:55;;;;;;;11.38;3.75;;;;;;;;;;5011780;28;20034;-64
2021/07/01 03:54:21;;;;;;;10.60;3.88;;;;;;;;;;5009789;28;20033;-65
2021/07/01 03:56:48;;;;;;;10.70;3.83;;;;;;;;;;5012037;28;20053;-66
2021/07/01 03:59:15;;;;;;;7.60;3.63;;;;;;;;;;5003693;28;20026;-67
2021/07/01 04:01:42;;;;;;;7.32;3.80;;;;;;;;;;5008123;28;20105;-67
2021/07/01 04:04:08;;;;;;;8.35;3.28;;;;;;;;;;5009255;28;20439;-65
2021/07/01 04:06:34;;;;;;;17.50;3.80;;;;;;;;;;5006085;28;20025;-65
2021/07/01 04:09:01;;;;;;;9.30;3.20;;;;;;;;;;5011535;28;20048;-66
2021/07/01 04:11:27;;;;;;;12.50;3.20;;;;;;;;;;5012191;28;20077;-66
2021/07/01 04:13:53;;;;;;;8.90;3.08;;;;;;;;;;5010876;28;20061;-67
2021/07/01 04:19:30;;;;;;;13.48;3.63;;;;;;;;;;5025437;23;20046;-66
2021/07/01 04:21:56;;;;;;;10.50;3.40;;;;;;;;;;4991022;28;20404;-63
2021/07/01 04:24:22;;;;;;;8.60;3.13;;;;;;;;;;4990280;28;20081;-64
2021/07/01 04:26:48;;;;;;;11.65;3.30;;;;;;;;;;4988518;28;20069;-64
2021/07/01 04:29:14;;;;;;;9.82;3.38;;;;;;;;;;4986885;28;20026;-66
2021/07/01 04:31:41;;;;;;;9.93;3.10;;;;;;;;;;4983271;28;20400;-64
2021/07/01 04:34:07;;;;;;;9.70;3.38;;;;;;;;;;4989351;28;20480;-67
2021/07/01 04:36:33;;;;;;;7.25;3.33;;;;;;;;;;4968882;28;20042;-64
2021/07/01 04:39:00;;;;;;;8.75;3.40;;;;;;;;;;4995029;28;20034;-64
2021/07/01 04:41:26;;;;;;;13.13;3.45;;;;;;;;;;4994466;28;20038;-66
2021/07/01 04:43:52;;;;;;;10.80;3.10;;;;;;;;;;4992825;28;20109;-63
2021/07/01 04:46:18;;;;;;;12.60;3.15;;;;;;;;;;4974924;28;20083;-63
2021/07/01 04:48:44;;;;;;;9.05;3.70;;;;;;;;;;4989947;28;20034;-66
2021/07/01 04:51:11;;;;;;;14.23;3.83;;;;;;;;;;4994090;28;20046;-67
2021/07/01 04:53:39;;;;;;;13.50;3.40;;;;;;;;;;4995050;28;20373;-65
2021/07/01 04:56:06;;;;;;;7.53;3.03;;;;;;;;;;4993269;28;20041;-63
2021/07/01 04:58:32;;;;;;;7.28;3.25;;;;;;;;;;4995098;28;20644;-67
2021/07/01 05:00:58;;;;;;;7.75;3.15;;;;;;;;;;4994960;28;20058;-66
2021/07/01 05:03:24;;;;;;;8.00;3.30;;;;;;;;;;4995053;28;20388;-65
2021/07/01 05:05:51;;;;;;;13.07;3.42;;;;;;;;;;4991603;28;20022;-64
2021/07/01 05:08:17;;;;;;;7.72;3.35;;;;;;;;;;4994056;28;20084;-63
2021/07/01 05:10:43;;;;;;;10.60;3.10;;;;;;;;;;4992854;28;20488;-65
2021/07/01 05:13:09;;;;;;;12.48;3.03;;;;;;;;;;4994630;28;20459;-65
2021/07/01 05:15:35;;;;;;;8.55;3.20;;;;;;;;;;4995026;28;20381;-66
2021/07/01 05:18:02;;;;;;;9.65;3.33;;;;;;;;;;4993886;28;20046;-63
2021/07/01 05:20:28;;;;;;;9.38;3.30;;;;;;;;;;4972545;28;20045;-63
2021/07/01 05:22:54;;;;;;;6.13;3.17;;;;;;;;;;4988399;28;20031;-66
2021/07/01 05:25:20;;;;;;;8.20;3.60;;;;;;;;;;4993541;28;20026;-64
2021/07/01 05:27:46;;;;;;;9.35;3.45;;;;;;;;;;4992229;28;20096;-64
2021/07/01 05:30:12;;;;;;;12.85;3.53;;;;;;;;;;4992823;28;20499;-67
2021/07/01 05:32:38;;;;;;;9.95;3.42;;;;;;;;;;4986394;28;20488;-67
2021/07/01 05:35:05;;;;;;;11.88;3.13;;;;;;;;;;4984839;28;20492;-65
2021/07/01 05:37:31;;;;;;;11.70;3.55;;;;;;;;;;4993573;28;20054;-68
2021/07/01 05:39:57;;;;;;;11.43;3.20;;;;;;;;;;4989402;28;20062;-70
2021/07/01 05:42:23;;;;;;;11.25;3.35;;;;;;;;;;4992065;28;20022;-66
2021/07/01 05:44:49;;;;;;;6.45;2.80;;;;;;;;;;4983407;28;20078;-65
2021/07/01 05:47:15;;;;;;;11.10;3.38;;;;;;;;;;4988331;28;20054;-71
2021/07/01 05:49:42;;;;;;;6.63;2.42;;;;;;;;;;4990557;28;20065;-67
2021/07/01 05:52:08;;;;;;;5.03;2.80;;;;;;;;;;4990987;28;20096;-70
2021/07/01 05:54:37;;;;;;;9.32;2.90;;;;;;;;;;4987026;28;20125;-64
2021/07/01 05:57:03;;;;;;;6.13;2.70;;;;;;;;;;4989645;28;20101;-63
2021/07/01 06:02:14;;;;;;;5.63;2.85;;;;;;;;;;5272320;23;20122;-69
2021/07/01 06:04:40;;;;;;;10.00;2.78;;;;;;;;;;4956969;28;20098;-69
2021/07/01 06:07:06;;;;;;;5.93;2.42;;;;;;;;;;4959303;28;20031;-65
2021/07/01 06:09:32;;;;;;;281.00;132.13;;;;;;;;;;4956917;28;20096;-70
2021/07/01 06:12:00;;;;;;;9.05;2.90;;;;;;;;;;4955130;28;20583;-68
2021/07/01 06:14:27;;;;;;;6.00;2.53;;;;;;;;;;4950412;28;20126;-67
2021/07/01 06:16:54;;;;;;;5.95;2.30;;;;;;;;;;4953881;28;20023;-80
2021/07/01 06:19:21;;;;;;;3.60;2.38;;;;;;;;;;4958761;28;20374;-82
2021/07/01 06:21:51;;;;;;;5.57;2.90;;;;;;;;;;4954740;28;20038;-80
2021/07/01 06:24:17;;;;;;;6.15;2.45;;;;;;;;;;4957285;28;20027;-80
2021/07/01 06:26:45;;;;;;;6.60;3.20;;;;;;;;;;4953791;28;20108;-71
2021/07/01 06:29:14;;;;;;;7.97;2.70;;;;;;;;;;4958909;28;20086;-84
2021/07/01 06:31:40;;;;;;;4.30;2.47;;;;;;;;;;4952140;28;20034;-71
2021/07/01 06:34:07;;;;;;;7.05;2.50;;;;;;;;;;4952022;28;20118;-81
2021/07/01 06:36:38;;;;;;;5.53;2.10;;;;;;;;;;4959301;28;20511;-69
2021/07/01 06:39:05;;;;;;;4.63;2.50;;;;;;;;;;4967867;28;20489;-82
2021/07/01 06:41:32;;;;;;;6.72;2.67;;;;;;;;;;4957867;28;20473;-76
2021/07/01 06:43:58;;;;;;;6.00;2.72;;;;;;;;;;4954511;28;20031;-71
2021/07/01 06:46:30;;;;;;;9.00;6.15;;;;;;;;;;4958897;28;20020;-63
2021/07/01 06:48:56;;;;;;;8.15;5.50;;;;;;;;;;4964564;28;20042;-70
2021/07/01 06:51:22;;;;;;;6.85;3.88;;;;;;;;;;4954457;28;20027;-70
2021/07/01 06:53:50;;;;;;;7.90;3.40;;;;;;;;;;4955484;28;20039;-86
2021/07/01 06:56:16;;;;;;;9.52;3.70;;;;;;;;;;4953485;28;20043;-85
2021/07/01 06:58:43;;;;;;;3.90;2.25;;;;;;;;;;4941108;28;20027;-84
2021/07/01 07:01:14;;;;;;;7.72;2.22;;;;;;;;;;4937781;29;20039;-73
2021/07/01 07:03:41;;;;;;;6.35;2.20;;;;;;;;;;4952635;29;20038;-76
2021/07/01 07:06:07;;;;;;;3.65;2.03;;;;;;;;;;4953930;28;20043;-76
2021/07/01 07:08:35;;;;;;;4.57;2.00;;;;;;;;;;4935285;29;20031;-71
2021/07/01 07:11:01;;;;;;;9.00;2.40;;;;;;;;;;4948880;28;20031;-72
2021/07/01 07:13:27;;;;;;;5.40;2.20;;;;;;;;;;4953781;29;20525;-71
2021/07/01 07:15:54;;;;;;;5.20;2.25;;;;;;;;;;4950673;29;20043;-69
2021/07/01 07:18:22;;;;;;;5.00;2.28;;;;;;;;;;4951087;29;20388;-71
2021/07/01 07:20:58;;;;;;;4.43;2.13;;;;;;;;;;4950288;29;20070;-71
2021/07/01 07:23:29;;;;;;;3.58;2.10;;;;;;;;;;4950146;29;20580;-77
2021/07/01 07:25:56;;;;;;;8.35;2.50;;;;;;;;;;4953390;29;20023;-72
2021/07/01 07:28:56;;;;;;;3.33;2.20;;;;;;;;;;4951449;29;20036;-73
2021/07/01 07:31:31;;;;;;;7.13;3.80;;;;;;;;;;4899158;29;20048;-75
2021/07/01 07:34:04;;;;;;;5.95;3.65;;;;;;;;;;4895175;29;20037;-71
2021/07/01 07:36:30;;;;;;;11.13;3.63;;;;;;;;;;4888839;29;20040;-80
2021/07/01 07:38:57;;;;;;;8.68;3.40;;;;;;;;;;4896190;29;20585;-76
2021/07/01 07:41:23;;;;;;;8.55;2.45;;;;;;;;;;4892988;29;20802;-72
2021/07/01 07:43:50;;;;;;;6.15;2.40;;;;;;;;;;4902031;29;20187;-77
2021/07/01 07:46:20;;;;;;;9.70;2.45;;;;;;;;;;4893655;29;20064;-80
2021/07/01 07:48:46;;;;;;;6.00;2.50;;;;;;;;;;4894281;29;20435;-78
2021/07/01 07:51:15;;;;;;;5.63;2.92;;;;;;;;;;4894611;29;20450;-79
2021/07/01 07:53:41;;;;;;;6.10;2.38;;;;;;;;;;4899224;29;20524;-68
2021/07/01 07:56:09;;;;;;;6.07;4.18;;;;;;;;;;4899397;29;20037;-68
2021/07/01 07:58:39;;;;;;;5.82;2.75;;;;;;;;;;4899606;29;20108;-73
2021/07/01 08:01:07;;;;;;;6.28;3.40;;;;;;;;;;4907234;29;20490;-69
2021/07/01 08:03:36;;;;;;;9.13;2.72;;;;;;;;;;4952238;29;20035;-72
2021/07/01 08:06:02;;;;;;;6.78;2.40;;;;;;;;;;4953150;29;20377;-70
2021/07/01 08:08:32;;;;;;;6.32;2.47;;;;;;;;;;4952585;29;20063;-69
2021/07/01 08:11:03;;;;;;;6.07;2.60;;;;;;;;;;4953523;28;20035;-69
2021/07/01 08:13:29;;;;;;;5.80;2.58;;;;;;;;;;4955295;29;20056;-70
2021/07/01 08:15:56;;;;;;;3.40;2.45;;;;;;;;;;4955984;29;20507;-71
2021/07/01 08:18:37;;;;;;;4.05;2.17;;;;;;;;;;4956746;29;20031;-71
2021/07/01 08:21:03;;;;;;;8.20;2.50;;;;;;;;;;4956547;29;20073;-67
2021/07/01 08:23:30;;;;;;;3.40;2.40;;;;;;;;;;4957080;29;20111;-77
2021/07/01 08:25:59;;;;;;;3.45;2.20;;;;;;;;;;4938032;29;20058;-76
2021/07/01 08:28:25;;;;;;;4.97;2.17;;;;;;;;;;4954188;29;20038;-76
2021/07/01 08:30:51;;;;;;;5.93;2.08;;;;;;;;;;4955350;29;20038;-68
2021/07/01 08:33:18;;;;;;;3.13;1.98;;;;;;;;;;4954208;29;20090;-66
2021/07/01 08:35:45;;;;;;;7.90;2.42;;;;;;;;;;4953798;29;20037;-67
2021/07/01 08:38:13;;;;;;;4.25;2.00;;;;;;;;;;4947999;29;20094;-86
2021/07/01 08:40:40;;;;;;;5.22;2.20;;;;;;;;;;4954844;29;20573;-75
2021/07/01 08:43:09;;;;;;;7.43;2.40;;;;;;;;;;4954242;29;20082;-69
2021/07/01 08:45:41;;;;;;;4.05;2.30;;;;;;;;;;4951449;29;20057;-68
2021/07/01 08:48:14;;;;;;;4.33;2.40;;;;;;;;;;4954308;29;20031;-66
2021/07/01 08:50:42;;;;;;;7.15;2.08;;;;;;;;;;4952857;29;20430;-83
2021/07/01 08:53:22;;;;;;;5.75;2.75;;;;;;;;;;4955107;29;20455;-79
2021/07/01 08:55:51;;;;;;;10.10;2.38;;;;;;;;;;4956354;28;20051;-70
2021/07/01 08:58:22;;;;;;;8.75;2.47;;;;;;;;;;4951316;29;20024;-72
2021/07/01 09:00:49;;;;;;;5.22;2.20;;;;;;;;;;4956021;28;20039;-73
2021/07/01 09:03:17;;;;;;;4.10;2.30;;;;;;;;;;4953697;29;20048;-65
2021/07/01 09:05:45;;;;;;;3.60;2.13;;;;;;;;;;4955403;29;20073;-78
2021/07/01 09:08:12;;;;;;;5.90;2.20;;;;;;;;;;4958121;28;20033;-73
2021/07/01 09:10:49;;;;;;;7.03;2.30;;;;;;;;;;4954019;28;20377;-68
2021/07/01 09:13:17;;;;;;;2.92;1.98;;;;;;;;;;4954601;28;20038;-66
2021/07/01 09:15:43;;;;;;;4.15;2.10;;;;;;;;;;4946369;29;20045;-66
2021/07/01 09:18:10;;;;;;;4.22;2.13;;;;;;;;;;4956319;29;20452;-67
2021/07/01 09:20:38;;;;;;;7.18;2.20;;;;;;;;;;4955156;29;20028;-66
2021/07/01 09:23:05;;;;;;;2.55;1.83;;;;;;;;;;4954724;28;20119;-70
2021/07/01 09:25:32;;;;;;;4.68;1.90;;;;;;;;;;4953854;29;20074;-69
2021/07/01 09:27:58;;;;;;;4.38;2.10;;;;;;;;;;4955324;28;20062;-67
2021/07/01 09:30:26;;;;;;;5.53;1.98;;;;;;;;;;4954716;29;20023;-63
2021/07/01 09:32:56;;;;;;;4.97;1.95;;;;;;;;;;4954606;28;20548;-67
2021/07/01 09:35:23;;;;;;;3.53;2.00;;;;;;;;;;4954607;29;20043;-66
2021/07/01 09:37:49;;;;;;;5.72;2.00;;;;;;;;;;4954528;29;20042;-62
2021/07/01 09:40:18;;;;;;;5.90;1.63;;;;;;;;;;4955312;29;20046;-67
2021/07/01 09:42:49;;;;;;;3.63;1.90;;;;;;;;;;4948093;29;20031;-64
2021/07/01 09:45:15;;;;;;;5.70;2.10;;;;;;;;;;4949341;29;20086;-67
2021/07/01 09:47:46;;;;;;;5.68;1.90;;;;;;;;;;4954048;29;20146;-67
2021/07/01 09:50:15;;;;;;;6.82;1.90;;;;;;;;;;4954935;29;20028;-67
2021/07/01 09:52:42;;;;;;;9.02;1.90;;;;;;;;;;4949421;29;20019;-68
2021/07/01 09:55:09;;;;;;;7.70;1.98;;;;;;;;;;4951251;29;20037;-62
2021/07/01 09:57:37;;;;;;;5.28;2.13;;;;;;;;;;4955500;28;20102;-68
2021/07/01 10:00:06;;;;;;;10.80;2.13;;;;;;;;;;4954910;29;20031;-66
2021/07/01 10:02:32;;;;;;;4.00;1.65;;;;;;;;;;4952799;28;20035;-65
2021/07/01 10:04:58;;;;;;;9.68;2.13;;;;;;;;;;4954882;29;20090;-63
2021/07/01 10:07:27;;;;;;;5.60;1.90;;;;;;;;;;4953182;29;20102;-67
2021/07/01 10:09:54;;;;;;;4.78;2.10;;;;;;;;;;4954259;29;20501;-70
2021/07/01 10:12:28;;;;;;;3.53;1.88;;;;;;;;;;4954590;29;20032;-65
2021/07/01 10:14:55;;;;;;;2.28;1.80;;;;;;;;;;4954192;29;20122;-67
2021/07/01 10:17:22;;;;;;;5.93;2.08;;;;;;;;;;4952671;29;20047;-70
2021/07/01 10:19:49;;;;;;;6.57;1.90;;;;;;;;;;4954633;29;20027;-68
2021/07/01 10:22:19;;;;;;;6.88;2.30;;;;;;;;;;4947068;29;20029;-77
2021/07/01 10:24:57;;;;;;;6.15;2.00;;;;;;;;;;4953961;28;20519;-79
2021/07/01 10:27:27;;;;;;;4.72;2.10;;;;;;;;;;4953792;29;20114;-64
2021/07/01 10:29:58;;;;;;;5.10;1.83;;;;;;;;;;4954259;29;20038;-67
2021/07/01 10:32:40;;;;;;;8.00;2.17;;;;;;;;;;4954419;29;20050;-65
2021/07/01 10:35:25;;;;;;;2.25;1.80;;;;;;;;;;4950125;28;20092;-65
2021/07/01 10:38:00;;;;;;;3.97;1.90;;;;;;;;;;4953087;29;20370;-82
2021/07/01 10:40:26;;;;;;;6.82;2.25;;;;;;;;;;4954782;29;20019;-76
2021/07/01 10:42:57;;;;;;;3.67;1.90;;;;;;;;;;4954840;28;20042;-72
2021/07/01 10:45:24;;;;;;;4.18;1.85;;;;;;;;;;4948221;29;20020;-72
2021/07/01 10:47:50;;;;;;;3.45;2.00;;;;;;;;;;4952773;29;20035;-67
2021/07/01 10:50:20;;;;;;;4.30;2.00;;;;;;;;;;4945958;29;20031;-82
2021/07/01 10:52:47;;;;;;;5.70;1.90;;;;;;;;;;4949056;29;20115;-69
2021/07/01 10:55:14;;;;;;;7.40;2.30;;;;;;;;;;4955463;28;20071;-72
2021/07/01 10:57:48;;;;;;;5.22;2.10;;;;;;;;;;4949239;29;20098;-82
2021/07/01 11:00:14;;;;;;;4.97;2.20;;;;;;;;;;4953451;29;20031;-82
2021/07/01 11:02:49;;;;;;;6.72;2.42;;;;;;;;;;4952827;28;20556;-77
2021/07/01 11:05:15;;;;;;;6.05;2.15;;;;;;;;;;4950065;29;20460;-64
2021/07/01 11:07:44;;;;;;;4.82;2.28;;;;;;;;;;4953720;29;20027;-69
2021/07/01 11:10:32;;;;;;;3.70;1.80;;;;;;;;;;4936124;29;20484;-69
2021/07/01 11:13:05;;;;;;;6.07;2.10;;;;;;;;;;4935930;29;20035;-73
2021/07/01 11:15:31;;;;;;;8.75;1.88;;;;;;;;;;4949911;29;20102;-74
2021/07/01 11:18:07;;;;;;;4.88;1.75;;;;;;;;;;4950248;29;20026;-75
2021/07/01 11:20:36;;;;;;;5.35;2.30;;;;;;;;;;4946511;29;20114;-72
2021/07/01 11:23:04;;;;;;;5.28;2.03;;;;;;;;;;4954141;29;20028;-73
2021/07/01 11:25:40;;;;;;;5.45;2.10;;;;;;;;;;4950719;29;20505;-64
2021/07/01 11:28:13;;;;;;;3.47;1.90;;;;;;;;;;4952125;29;20090;-64
2021/07/01 11:30:39;;;;;;;;;;;;;;;;;;4944691;29;20035;-66
2021/07/01 11:33:12;;;;;;;12.55;2.30;;;;;;;;;;4950854;29;19911;-66
2021/07/01 11:35:38;;;;;;;;;;;;;;;;;;4951009;29;20094;-64
2021/07/01 11:38:04;;;;;;;7.20;1.98;;;;;;;;;;4953654;28;19910;-65
2021/07/01 11:40:30;;;;;;;11.63;2.83;;;;;;;;;;4951461;29;20035;-65
2021/07/01 11:42:57;;;;;;;4.80;1.95;;;;;;;;;;4950222;28;20046;-64
2021/07/01 11:45:23;;;;;;;7.35;2.17;;;;;;;;;;4953315;28;20019;-67
2021/07/01 11:47:51;;;;;;;4.85;2.20;;;;;;;;;;4951180;29;20409;-64
2021/07/01 11:50:17;;;;;;;6.75;1.70;;;;;;;;;;4952710;29;20056;-64
2021/07/01 11:52:44;;;;;;;10.38;2.28;;;;;;;;;;4952499;29;20395;-63
2021/07/01 11:55:13;;;;;;;8.00;2.08;;;;;;;;;;4951598;28;20038;-67
2021/07/01 11:57:39;;;;;;;5.53;1.83;;;;;;;;;;4953064;29;20038;-64
2021/07/01 12:00:06;;;;;;;7.30;2.00;;;;;;;;;;4953384;29;20438;-66
2021/07/01 12:02:32;;;;;;;3.90;1.73;;;;;;;;;;4932334;29;20048;-65
2021/07/01 12:05:02;;;;;;;6.53;1.60;;;;;;;;;;4932187;29;20102;-66
2021/07/01 12:07:34;;;;;;;4.10;1.90;;;;;;;;;;4928945;29;20547;-66
2021/07/01 12:10:00;;;;;;;5.80;2.00;;;;;;;;;;4927746;29;20028;-65
2021/07/01 12:12:27;;;;;;;12.65;2.47;;;;;;;;;;4933644;29;20040;-67
2021/07/01 12:15:13;;;;;;;6.55;2.10;;;;;;;;;;4933155;29;20801;-65
2021/07/01 12:18:03;;;;;;;5.65;2.30;;;;;;;;;;4933447;29;20478;-64
2021/07/01 12:20:33;;;;;;;6.00;2.20;;;;;;;;;;4932521;29;20026;-65
2021/07/01 12:23:03;;;;;;;5.15;2.10;;;;;;;;;;4931634;29;20502;-67
2021/07/01 12:25:30;;;;;;;6.55;2.22;;;;;;;;;;4930514;29;20034;-68
2021/07/01 12:28:07;;;;;;;7.03;2.10;;;;;;;;;;4931959;29;20035;-67
2021/07/01 12:30:54;;;;;;;7.85;1.70;;;;;;;;;;4931857;29;20054;-62
2021/07/01 12:33:39;;;;;;;18.98;2.45;;;;;;;;;;4930412;29;20034;-64
2021/07/01 12:36:06;;;;;;;5.05;2.05;;;;;;;;;;4928670;29;20394;-65
2021/07/01 12:38:32;;;;;;;4.03;1.70;;;;;;;;;;4932060;29;20036;-68
2021/07/01 12:41:00;;;;;;;5.00;1.80;;;;;;;;;;4932515;29;20047;-65
2021/07/01 12:43:47;;;;;;;4.07;1.45;;;;;;;;;;4926537;29;20028;-68
2021/07/01 12:46:13;;;;;;;8.55;2.15;;;;;;;;;;4932904;29;20508;-72
2021/07/01 12:48:40;;;;;;;4.75;2.20;;;;;;;;;;4931953;29;20040;-65
2021/07/01 12:51:25;;;;;;;14.98;2.40;;;;;;;;;;4932571;29;20036;-66
2021/07/01 12:53:51;;;;;;;4.95;1.70;;;;;;;;;;4935304;29;20040;-64
2021/07/01 12:56:46;;;;;;;3.40;1.83;;;;;;;;;;4929847;29;20031;-66
2021/07/01 12:59:12;;;;;;;6.53;1.70;;;;;;;;;;4898984;29;20036;-67
2021/07/01 13:01:38;;;;;;;4.82;1.60;;;;;;;;;;4901914;29;20119;-65
2021/07/01 13:04:04;;;;;;;7.22;2.05;;;;;;;;;;4901547;29;20041;-65
2021/07/01 13:06:30;;;;;;;6.88;1.75;;;;;;;;;;4896665;29;20037;-66
2021/07/01 13:08:56;;;;;;;4.55;2.10;;;;;;;;;;4899496;29;20128;-65
2021/07/01 13:11:22;;;;;;;6.90;1.88;;;;;;;;;;4898690;29;20039;-66
2021/07/01 13:13:58;;;;;;;8.00;1.90;;;;;;;;;;4898384;29;20053;-67
2021/07/01 13:16:24;;;;;;;5.35;1.90;;;;;;;;;;4896966;29;20053;-65
2021/07/01 13:18:50;;;;;;;6.85;1.80;;;;;;;;;;4885543;29;20043;-64
2021/07/01 13:21:16;;;;;;;5.60;2.20;;;;;;;;;;4896792;29;20037;-67
2021/07/01 13:23:43;;;;;;;12.23;1.88;;;;;;;;;;4900709;29;20049;-66
2021/07/01 13:26:12;;;;;;;5.05;1.90;;;;;;;;;;4898546;29;20594;-65
2021/07/01 13:28:39;;;;;;;4.60;2.25;;;;;;;;;;4895357;29;20044;-65
2021/07/01 13:31:05;;;;;;;6.40;2.00;;;;;;;;;;4897650;29;20112;-70
2021/07/01 13:33:31;;;;;;;4.47;1.83;;;;;;;;;;4899222;29;20042;-64
2021/07/01 13:35:59;;;;;;;5.75;1.80;;;;;;;;;;4919840;29;20123;-62
2021/07/01 13:38:25;;;;;;;6.40;2.10;;;;;;;;;;4934862;29;20035;-67
2021/07/01 13:41:01;;;;;;;10.30;2.00;;;;;;;;;;4934650;29;20043;-66
2021/07/01 13:43:27;;;;;;;8.82;2.22;;;;;;;;;;4934621;29;20075;-66
2021/07/01 13:45:56;;;;;;;3.50;2.00;;;;;;;;;;4930984;29;20024;-62
2021/07/01 13:48:23;;;;;;;7.93;2.00;;;;;;;;;;4931027;29;20504;-66
2021/07/01 13:50:53;;;;;;;8.18;2.25;;;;;;;;;;4929861;29;20118;-63
2021/07/01 13:53:22;;;;;;;11.90;2.55;;;;;;;;;;4931264;29;20051;-61
2021/07/01 13:55:54;;;;;;;3.13;1.60;;;;;;;;;;4933126;29;20509;-59
2021/07/01 13:58:23;;;;;;;17.50;2.50;;;;;;;;;;4933483;29;20500;-59
2021/07/01 14:00:51;;;;;;;14.27;2.20;;;;;;;;;;4935058;29;20032;-61
2021/07/01 14:03:18;;;;;;;4.15;2.25;;;;;;;;;;4948238;29;20031;-60
2021/07/01 14:05:46;;;;;;;3.60;2.00;;;;;;;;;;4957304;28;20035;-67
2021/07/01 14:08:22;;;;;;;16.05;2.80;;;;;;;;;;4955170;28;20015;-66
2021/07/01 14:10:55;;;;;;;10.55;2.13;;;;;;;;;;4946310;29;20031;-63
2021/07/01 14:13:21;;;;;;;15.57;2.25;;;;;;;;;;4952166;28;20028;-66
2021/07/01 14:15:47;;;;;;;4.57;1.60;;;;;;;;;;4931471;28;20043;-69
2021/07/01 14:18:14;;;;;;;3.17;1.55;;;;;;;;;;4953148;28;20062;-63
2021/07/01 14:20:40;;;;;;;7.43;2.08;;;;;;;;;;4950430;29;20032;-65
2021/07/01 14:23:20;;;;;;;12.57;2.38;;;;;;;;;;4949944;28;20470;-66
2021/07/01 14:25:46;;;;;;;4.97;2.08;;;;;;;;;;4950127;29;20086;-66
2021/07/01 14:28:13;;;;;;;5.03;1.75;;;;;;;;;;4955484;28;20031;-65
2021/07/01 14:30:39;;;;;;;5.55;1.73;;;;;;;;;;4949731;29;20045;-65
2021/07/01 14:33:24;;;;;;;7.93;2.10;;;;;;;;;;4953175;29;20054;-64
2021/07/01 14:36:00;;;;;;;22.20;2.45;;;;;;;;;;4954214;29;20072;-64
2021/07/01 14:38:27;;;;;;;2.80;1.73;;;;;;;;;;4951605;28;20034;-64
2021/07/01 14:41:08;;;;;;;12.90;2.53;;;;;;;;;;4946275;29;20035;-65
2021/07/01 14:43:36;;;;;;;7.63;1.95;;;;;;;;;;4942445;29;20362;-65
2021/07/01 14:46:22;;;;;;;4.35;1.85;;;;;;;;;;4947799;29;20028;-65
2021/07/01 14:48:50;;;;;;;6.93;2.40;;;;;;;;;;4953928;29;20031;-65
2021/07/01 14:51:26;;;;;;;8.95;1.80;;;;;;;;;;4952174;29;20093;-64